Hlavní strana
METAR-TAF:

METAR-TAF

Letiště :

Námořní základna Rota

Rota, Španělsko

zeměpisná šířka: 36-39N, zeměpisná délka: 006-21W, výška: 26 m

Aktuální stav počasí

Zpráva byla vytvořena před 1 hodinou a 11 minutami, v 04:00 UTC
Jihojihovýchodní vítr 3 kt
Teplota 14°C
Vlhkost vzduchu 82%
Tlak 1022 hPa
Viditelnost 10 km a více

METAR: LERT 070400Z AUTO 15003KT 9999 NCD 14/11 Q1022

Čas: 07:11 (05:11 UTC)

Předpověď počasí

Zpráva byla vytvořena před 3 hodinami a 11 minutami, v 02:00 UTC
Předpověď platná od 07 v 03 UTC do 07 v 12 UTC
Východojihovýchodní vítr 6 kt
Viditelnost 10 km a více
Skoro jasno ve výšce 2000 ft

TAF: LERT 070200Z 0703/0712 11006KT 9999 FEW020

Stav a předpovědi počasí z více než 4 000 letišť (zprávy METAR a TAF).

Červené a žluté tečky na mapě představují dostupné meteorologické stanice.

Když kurzor umístíte na tečku, zobrazí se název stanice.

Pak kliknutím zobrazíte stav a předpověď počasí.

Chcete-li změnit mapu, kliknutím na zelené tlačítko se znaménkem +mapu přiblížíte, kliknutím na zelené tlačítko se znaménkem – mapu oddálíte a kliknutím na zelené šipky přejdete na sousední mapy.


METAR-TAF: